Sunday, December 17, 2017, 4:15 PM EST
Back to Local

KFIT, Fitchburg, Fitchburg Municipal Airport

Location: Leominster, MA, United States Lat: 42.552
Local Time: 4:15 PM EST (21:15 GMT) Lon: -71.756
Time Zone: US/Eastern Elev: 347 ft

Show me the last for .
Show Coded

Time T Td Feel RH Dir Speed Gust Alt SLP Vis Weather Sky Remarks
2017-12-17 15:52 27 9 22 45 330° 5 - 30.23 30.25 10 CLR None
2017-12-17 14:52 28 8 19 42 300° 9 - 30.21 30.23 10 CLR None
2017-12-17 13:52 29 6 19 37 320° 12 - 30.21 30.23 10 CLR None
2017-12-17 12:52 29 5 19 35 330° 12 - 30.23 30.25 10 CLR 6-hr Min Temp (1pm): 15.1°F
6-hr Max Temp (1pm): 28.9°F
2017-12-17 11:52 28 8 19 42 300° 9 - 30.25 30.27 10 CLR None
2017-12-17 10:52 26 6 14 41 290° 15 - 30.27 30.28 10 CLR None
2017-12-17 09:52 23 6 11 47 300° 13 - 30.27 30.29 10 CLR None
2017-12-17 08:52 20 6 13 54 330° 5 - 30.27 30.28 10 CLR None
2017-12-17 07:52 16 7 - 66 - Calm - 30.26 30.27 10 CLR None
2017-12-17 06:52 16 7 9 66 320° 5 - 30.25 30.26 10 FEW120 6-hr Min Temp (7am): 9.0°F
6-hr Max Temp (7am): 17.1°F
2017-12-17 05:52 15 7 - 69 - Calm - 30.26 30.27 10 CLR None
2017-12-17 04:52 9 5 - 83 - Calm - 30.23 30.25 10 CLR None
2017-12-17 03:52 10 6 - 83 - Calm - 30.21 30.23 10 CLR None
2017-12-17 02:52 13 8 - 80 - Calm - 30.20 30.22 10 CLR None
2017-12-17 01:52 14 9 8 79 30° 3 - 30.19 30.20 10 CLR None
2017-12-17 00:52 14 11 - 87 - Calm - 30.17 30.19 10 CLR 6-hr Precip Total (1am): 0.00"
6-hr Min Temp (1am): 10.9°F
6-hr Max Temp (1am): 28.0°F
2017-12-16 23:52 16 12 - 84 - Calm - 30.16 30.18 10 CLR 24-hr Min Temp (12am): 14.0°F
24-hr Max Temp (12am): 32.0°F
2017-12-16 22:52 20 13 - 73 - Calm - 30.15 30.17 10 CLR None
2017-12-16 21:52 24 14 20 64 350° 3 - 30.13 30.14 10 CLR 6-hr Precip Total (10pm): 0.00"
2017-12-16 20:52 26 16 18 65 280° 7 - 30.11 30.12 10 CLR None
2017-12-16 19:52 28 18 15 65 300° 12 18 30.08 30.10 10 FEW026 SCT036 OVC060 1-hr Precip Total: Trace
2017-12-16 19:42 27 21 20 77 310° 6 - 30.08 - 10 SCT017 BKN040 OVC060 1-hr Precip Total: Trace
2017-12-16 19:33 27 22 22 80 310° 5 - 30.08 - 3 -SN BKN023 BKN035 OVC060 1-hr Precip Total: Trace
2017-12-16 19:30 27 21 19 77 320° 7 - 30.08 - 1 -SN BKN023 BKN035 OVC060 1-hr Precip Total: Trace
2017-12-16 19:22 28 19 19 68 350° 10 - 30.07 - 2 -SN BKN025 BKN030 OVC065 1-hr Precip Total: Trace
2017-12-16 18:52 28 17 19 62 290° 9 - 30.06 30.07 10 SCT042 6-hr Min Temp (7pm): 26.1°F
6-hr Max Temp (7pm): 32.0°F
2017-12-16 17:52 28 17 21 62 290° 7 - 30.02 30.03 10 CLR None
2017-12-16 16:52 30 18 21 60 290° 10 - 29.98 29.99 10 OVC080 None

Support USWX by starting your Amazon purchase here.